Time;durP1;ratioP1;P1;durP2;ratioP2;P2;SDS_P1;SDS_P2;PMS_P1;PMS_P2;Temp;Humidity;BMP_temperature;BMP_pressure;BME280_temperature;BME280_humidity;BME280_pressure;Samples;Min_cycle;Max_cycle;Signal;HPM_P1;HPM_P2
2024/03/14 00:01:26;;;;;;;;;9.25;9.25;;;;;12.18;59.55;100761.53;146596;630;47016;-76
2024/03/14 00:04:35;;;;;;;;;31.50;26.75;;;;;12.17;60.42;100764.94;146600;571;46020;-70
2024/03/14 00:07:33;;;;;;;;;19.00;14.00;;;;;12.13;59.84;100760.44;146595;593;46016;-77
2024/03/14 00:10:47;;;;;;;;;6.75;6.50;;;;;12.10;60.45;100765.50;146600;564;47008;-76
2024/03/14 00:13:40;;;;;;;;;4.50;4.50;;;;;12.00;60.98;100759.00;146596;695;46911;-76
2024/03/14 00:16:41;;;;;;;;;3.25;3.25;;;;;11.91;62.08;100764.66;146601;619;46021;-75
2024/03/14 00:19:58;;;;;;;;;9.25;6.00;;;;;11.82;62.85;100769.37;146595;601;47010;-82
2024/03/14 00:22:50;;;;;;;;;4.75;4.75;;;;;11.76;62.91;100764.78;146600;723;47008;-75
2024/03/14 00:25:46;;;;;;;;;2.00;2.00;;;;;11.74;62.62;100758.66;146598;611;46010;-74
2024/03/14 00:28:43;;;;;;;;;4.00;4.00;;;;;11.73;63.10;100761.16;146602;585;46008;-71
2024/03/14 00:32:04;;;;;;;;;;;;;;;;;;;;;
2024/03/14 00:35:03;;;;;;;;;4.50;2.25;;;;;11.79;61.81;100767.53;146597;648;47008;-73
2024/03/14 00:38:23;;;;;;;;;5.00;4.75;;;;;11.88;60.15;100767.09;146598;670;46017;-73
2024/03/14 00:41:27;;;;;;;;;7.00;7.00;;;;;11.97;60.65;100770.13;146602;603;46020;-73
2024/03/14 00:44:25;;;;;;;;;7.25;6.00;;;;;12.01;61.24;100777.25;146595;664;46916;-74
2024/03/14 00:47:18;;;;;;;;;7.50;6.00;;;;;11.97;61.39;100783.13;146603;652;46021;-77
2024/03/14 00:50:19;;;;;;;;;7.00;6.00;;;;;11.92;60.99;100781.12;146596;569;46012;-78
2024/03/14 00:53:23;;;;;;;;;10.50;8.00;;;;;11.87;60.99;100785.22;146599;592;47008;-78
2024/03/14 00:56:25;;;;;;;;;7.75;6.75;;;;;11.78;61.78;100785.66;146596;575;47010;-78
2024/03/14 00:59:40;;;;;;;;;9.75;9.00;;;;;11.51;62.23;100752.34;146598;590;47008;-77
2024/03/14 01:02:42;;;;;;;;;10.50;10.00;;;;;11.55;61.34;100784.53;146596;593;46017;-78
2024/03/14 01:05:37;;;;;;;;;7.25;7.25;;;;;11.47;63.26;100775.50;146598;622;46020;-73
2024/03/14 01:08:41;;;;;;;;;7.25;6.25;;;;;11.39;63.61;100777.72;146598;580;47912;-74
2024/03/14 01:11:41;;;;;;;;;6.50;5.25;;;;;11.31;63.78;100779.06;146601;617;46020;-72
2024/03/14 01:14:37;;;;;;;;;7.50;5.75;;;;;11.22;63.82;100776.03;146597;577;46021;-72
2024/03/14 01:17:39;;;;;;;;;7.75;6.75;;;;;11.16;64.53;100779.19;146603;576;46008;-73
2024/03/14 01:20:53;;;;;;;;;10.00;9.00;;;;;11.12;64.36;100774.69;146595;616;47012;-76
2024/03/14 01:23:54;;;;;;;;;11.25;8.00;;;;;11.14;64.35;100774.75;146599;600;47008;-80
2024/03/14 01:26:51;;;;;;;;;16.00;12.75;;;;;11.14;64.08;100769.56;146624;591;46008;-77
2024/03/14 01:29:50;;;;;;;;;18.25;14.75;;;;;11.18;63.29;100774.06;146626;640;45020;-79
2024/03/14 01:32:52;;;;;;;;;6.00;5.00;;;;;10.67;62.74;100675.56;146624;608;46010;-80
2024/03/14 01:35:48;;;;;;;;;7.50;4.75;;;;;11.32;63.41;100768.75;146624;665;47008;-78
2024/03/14 01:38:41;;;;;;;;;6.00;5.25;;;;;11.37;62.85;100765.47;146624;679;45912;-78
2024/03/14 01:41:36;;;;;;;;;4.50;4.50;;;;;11.33;62.42;100762.72;146625;595;46008;-73
2024/03/14 01:45:00;;;;;;;;;14.25;11.50;;;;;11.30;61.41;100770.38;146622;618;46912;-73
2024/03/14 01:47:53;;;;;;;;;7.00;5.75;;;;;11.30;62.32;100775.56;146628;576;45010;-73
2024/03/14 01:50:54;;;;;;;;;6.50;6.00;;;;;11.34;62.45;100776.63;146625;662;45016;-72
2024/03/14 01:54:04;;;;;;;;;4.00;4.00;;;;;11.31;60.93;100776.47;146628;588;45008;-72
2024/03/14 01:57:02;;;;;;;;;5.75;4.75;;;;;11.27;62.26;100767.62;146623;571;46016;-73
2024/03/14 02:00:18;;;;;;;;;3.50;2.50;;;;;11.26;62.21;100772.75;146627;684;45020;-75
2024/03/14 02:03:17;;;;;;;;;5.75;5.00;;;;;11.26;62.84;100780.53;146628;569;45010;-74
2024/03/14 02:06:25;;;;;;;;;3.25;3.25;;;;;11.25;62.14;100763.19;146624;563;45020;-74
2024/03/14 02:09:22;;;;;;;;;4.00;4.00;;;;;11.27;62.48;100769.34;146624;611;45912;-75
2024/03/14 02:12:22;;;;;;;;;4.00;3.75;;;;;11.35;62.50;100773.19;146627;579;45020;-74
2024/03/14 02:15:18;;;;;;;;;4.25;4.25;;;;;11.43;62.00;100776.16;146625;685;45016;-80
2024/03/14 02:18:13;;;;;;;;;4.00;3.50;;;;;11.49;62.23;100772.16;146625;579;46020;-72
2024/03/14 02:21:15;;;;;;;;;3.00;3.00;;;;;11.52;61.98;100772.28;146623;686;46025;-71
2024/03/14 02:24:20;;;;;;;;;5.75;4.25;;;;;11.53;61.91;100773.22;146628;564;45020;-72
2024/03/14 02:27:13;;;;;;;;;8.25;5.50;;;;;11.46;62.28;100769.41;146598;584;46016;-71
2024/03/14 02:30:18;;;;;;;;;7.25;7.00;;;;;11.44;62.59;100765.87;146600;685;46008;-71
2024/03/14 02:33:13;;;;;;;;;10.50;10.50;;;;;11.44;62.85;100767.56;146596;573;47010;-72
2024/03/14 02:36:10;;;;;;;;;10.75;9.50;;;;;11.44;63.72;100759.78;146598;588;47008;-71
2024/03/14 02:39:10;;;;;;;;;9.00;8.50;;;;;11.38;63.24;100762.09;146595;613;47017;-72
2024/03/14 02:42:30;;;;;;;;;9.00;8.25;;;;;11.32;62.67;100765.25;146601;626;46020;-72
2024/03/14 02:45:28;;;;;;;;;10.25;10.00;;;;;11.32;65.74;100778.25;146597;737;46017;-70
2024/03/14 02:48:30;;;;;;;;;9.50;9.25;;;;;11.25;65.66;100773.56;146598;684;46008;-69
2024/03/14 02:51:25;;;;;;;;;7.25;7.00;;;;;11.16;66.34;100773.13;146594;625;47010;-69
2024/03/14 02:54:27;;;;;;;;;4.75;4.50;;;;;11.05;65.74;100775.16;146599;567;47008;-70
2024/03/14 02:57:47;;;;;;;;;7.00;6.00;;;;;10.97;66.05;100771.31;146596;649;47016;-70
2024/03/14 03:00:48;;;;;;;;;4.75;3.75;;;;;10.93;64.84;100762.47;146601;584;47021;-69
2024/03/14 03:03:46;;;;;;;;;5.50;3.75;;;;;10.90;65.73;100759.72;146596;572;46016;-70
2024/03/14 03:07:00;;;;;;;;;6.00;2.00;;;;;10.87;65.60;100756.97;146597;606;47020;-77
2024/03/14 03:10:05;;;;;;;;;4.00;4.00;;;;;10.87;65.33;100756.97;146595;641;47016;-77
2024/03/14 03:13:23;;;;;;;;;4.00;4.00;;;;;10.92;65.21;100760.69;146599;579;46914;-77
2024/03/14 03:16:30;;;;;;;;;5.00;5.00;;;;;11.01;64.13;100770.66;146595;644;46017;-75
2024/03/14 03:19:35;;;;;;;;;3.25;3.25;;;;;11.08;64.92;100767.53;146599;572;47008;-71
2024/03/14 03:23:03;;;;;;;;;4.00;4.00;;;;;11.18;64.20;100772.34;146599;578;46016;-71
2024/03/14 03:25:48;;;;;;;;;4.75;4.25;;;;;11.22;63.65;100776.03;146602;602;47008;-71
2024/03/14 03:28:46;;;;;;;;;7.25;5.75;;;;;11.22;63.48;100770.84;146594;617;46016;-75
2024/03/14 03:31:41;;;;;;;;;10.75;6.25;;;;;11.13;64.70;100780.75;146596;604;47008;-76
2024/03/14 03:34:37;;;;;;;;;23.00;21.25;;;;;11.00;66.12;100769.75;146594;732;46016;-72
2024/03/14 03:37:36;;;;;;;;;8.00;6.00;;;;;10.90;65.33;100766.59;146601;575;46008;-73
2024/03/14 03:40:38;;;;;;;;;8.50;7.50;;;;;10.81;65.62;100780.91;146595;569;47911;-73
2024/03/14 03:43:34;;;;;;;;;19.50;16.75;;;;;10.74;65.55;100778.78;146600;599;46010;-73
2024/03/14 03:46:36;;;;;;;;;16.00;15.00;;;;;10.70;65.96;100775.97;146592;627;47012;-71
2024/03/14 03:49:34;;;;;;;;;15.00;13.50;;;;;10.64;66.02;100780.03;146601;573;46008;-73
2024/03/14 03:52:33;;;;;;;;;10.25;9.25;;;;;10.56;65.40;100783.94;146597;581;46017;-74
2024/03/14 03:55:40;;;;;;;;;9.50;6.00;;;;;10.49;67.01;100789.59;146599;658;47008;-74
2024/03/14 03:58:34;;;;;;;;;9.50;7.75;;;;;10.38;66.95;100788.16;146596;580;47010;-74
2024/03/14 04:01:41;;;;;;;;;18.25;15.50;;;;;10.24;65.78;100773.53;146602;580;46008;-74
2024/03/14 04:04:41;;;;;;;;;4.00;3.50;;;;;10.34;67.27;100791.38;146598;594;46017;-74
2024/03/14 04:07:39;;;;;;;;;5.25;4.75;;;;;10.19;66.99;100796.63;146600;607;46021;-73
2024/03/14 04:10:51;;;;;;;;;3.00;3.00;;;;;10.04;68.82;100800.97;146597;586;46016;-73
2024/03/14 04:13:47;;;;;;;;;5.00;4.00;;;;;9.89;69.79;100790.66;146600;570;47010;-73
2024/03/14 04:16:49;;;;;;;;;6.75;5.75;;;;;9.80;69.31;100798.81;146597;615;46016;-75
2024/03/14 04:19:45;;;;;;;;;7.00;5.00;;;;;9.76;68.93;100803.75;146600;578;46008;-74
2024/03/14 04:22:42;;;;;;;;;6.00;4.75;;;;;9.76;68.57;100808.94;146597;595;47010;-73
2024/03/14 04:25:54;;;;;;;;;5.75;5.50;;;;;9.76;68.91;100811.53;146601;607;46020;-79
2024/03/14 04:28:48;;;;;;;;;7.75;7.75;;;;;9.72;70.15;100813.06;146595;566;46031;-79
2024/03/14 04:31:52;;;;;;;;;9.00;7.00;;;;;9.68;69.89;100811.97;146599;575;46020;-80
2024/03/14 04:34:49;;;;;;;;;4.25;4.25;;;;;9.65;68.87;100806.59;146596;564;46018;-73
2024/03/14 04:37:49;;;;;;;;;6.00;3.75;;;;;9.70;68.78;100817.25;146599;623;46020;-73
2024/03/14 04:40:48;;;;;;;;;6.00;4.50;;;;;9.72;71.57;100813.06;146595;581;47012;-70
2024/03/14 04:43:45;;;;;;;;;6.00;6.00;;;;;9.73;69.95;100819.13;146598;690;47018;-71
2024/03/14 04:46:45;;;;;;;;;7.25;5.75;;;;;9.84;68.78;100836.13;146595;647;47027;-74
2024/03/14 04:49:47;;;;;;;;;9.25;6.75;;;;;8.95;69.16;100665.53;146602;584;46020;-73
2024/03/14 04:52:58;;;;;;;;;14.75;13.00;;;;;10.02;67.85;100839.75;146595;603;47010;-76
2024/03/14 04:55:54;;;;;;;;;13.75;10.25;;;;;9.13;68.04;100668.25;146599;587;47010;-76
2024/03/14 04:58:54;;;;;;;;;11.25;10.50;;;;;10.20;67.50;100849.34;146594;658;47010;-75
2024/03/14 05:01:48;;;;;;;;;11.25;11.25;;;;;10.27;67.54;100848.88;146598;616;47020;-76
2024/03/14 05:04:46;;;;;;;;;15.00;13.00;;;;;10.28;66.61;100846.41;146597;585;46011;-75
2024/03/14 05:07:57;;;;;;;;;16.25;13.75;;;;;10.41;66.92;100855.72;146599;581;46008;-74
2024/03/14 05:10:53;;;;;;;;;13.75;12.00;;;;;10.47;66.58;100868.13;146594;612;48010;-74
2024/03/14 05:13:57;;;;;;;;;12.50;10.50;;;;;10.53;67.10;100861.56;146600;603;46021;-73
2024/03/14 05:17:02;;;;;;;;;13.25;10.75;;;;;11.12;68.37;100864.59;146596;718;46016;-74
2024/03/14 05:20:16;;;;;;;;;22.00;20.00;;;;;12.02;65.34;100866.50;146597;602;47008;-75
2024/03/14 05:23:13;;;;;;;;;22.00;19.25;;;;;12.97;62.37;100863.03;146593;593;47012;-75
2024/03/14 05:26:12;;;;;;;;;11.00;10.00;;;;;13.78;60.87;100863.87;146596;578;47008;-75
2024/03/14 05:29:07;;;;;;;;;10.50;7.75;;;;;14.58;58.67;100866.09;146594;575;46017;-78
2024/03/14 05:32:17;;;;;;;;;;;;;;;;;;;;;
2024/03/14 05:35:14;;;;;;;;;11.00;8.50;;;;;15.66;54.34;100859.47;146597;564;47010;-81
2024/03/14 05:38:10;;;;;;;;;18.75;15.25;;;;;15.97;54.98;100854.37;146597;592;46020;-81
2024/03/14 05:41:17;;;;;;;;;24.00;22.00;;;;;16.38;53.40;100848.66;146595;581;47016;-85
2024/03/14 05:44:19;;;;;;;;;17.75;14.50;;;;;16.68;52.20;100863.50;146599;577;47008;-87
2024/03/14 05:47:20;;;;;;;;;14.75;11.00;;;;;16.81;51.73;100862.12;146594;670;48010;-72
2024/03/14 05:50:29;;;;;;;;;9.75;7.25;;;;;16.90;51.73;100870.25;146600;695;47008;-76
2024/03/14 05:53:44;;;;;;;;;9.00;8.75;;;;;17.04;50.89;100871.53;146595;606;47010;-74
2024/03/14 05:56:40;;;;;;;;;11.75;9.00;;;;;16.98;50.86;100868.75;146601;655;46037;-73
2024/03/14 05:59:43;;;;;;;;;10.00;9.75;;;;;16.98;50.06;100873.09;146597;623;46016;-73
2024/03/14 06:02:39;;;;;;;;;20.75;19.50;;;;;16.84;49.97;100875.31;146600;608;46020;-73
2024/03/14 06:05:31;;;;;;;;;14.50;14.25;;;;;16.66;50.66;100882.59;146595;577;46017;-76
2024/03/14 06:08:32;;;;;;;;;12.50;12.50;;;;;16.45;51.57;100886.38;146599;588;47020;-78
2024/03/14 06:11:32;;;;;;;;;12.00;9.75;;;;;16.34;51.98;100882.53;146597;628;46017;-72
2024/03/14 06:14:29;;;;;;;;;16.25;12.25;;;;;16.33;52.52;100892.13;146599;586;47008;-71
2024/03/14 06:17:23;;;;;;;;;19.75;17.75;;;;;16.43;53.23;100895.91;146593;575;46016;-71
2024/03/14 06:20:15;;;;;;;;;20.75;17.25;;;;;16.57;52.98;100892.00;146599;683;46021;-76
2024/03/14 06:23:16;;;;;;;;;14.75;12.25;;;;;16.75;52.82;100893.34;146594;611;47010;-76
2024/03/14 06:26:12;;;;;;;;;12.25;10.00;;;;;16.99;52.74;100895.81;146599;571;47008;-76
2024/03/14 06:29:11;;;;;;;;;10.00;8.50;;;;;17.25;51.74;100899.13;146598;717;46016;-76
2024/03/14 06:32:12;;;;;;;;;12.25;9.75;;;;;17.49;50.90;100897.16;146598;563;47008;-78
2024/03/14 06:35:14;;;;;;;;;11.75;11.00;;;;;17.59;49.56;100895.66;146596;614;47017;-77
2024/03/14 06:38:24;;;;;;;;;10.75;10.75;;;;;17.40;48.38;100898.66;146595;573;47008;-77
2024/03/14 06:41:19;;;;;;;;;12.50;12.00;;;;;17.13;49.20;100901.41;146595;600;47010;-76
2024/03/14 06:44:15;;;;;;;;;14.00;12.25;;;;;17.00;50.53;100903.69;146599;569;46020;-76
2024/03/14 06:47:20;;;;;;;;;13.75;12.00;;;;;17.04;50.50;100908.19;146596;569;46016;-76
2024/03/14 06:50:28;;;;;;;;;11.00;10.00;;;;;17.04;49.52;100910.81;146600;591;46021;-76
2024/03/14 06:53:35;;;;;;;;;11.50;10.25;;;;;17.03;50.07;100918.63;146597;565;47016;-75
2024/03/14 06:56:28;;;;;;;;;12.50;10.50;;;;;16.97;50.14;100914.09;146602;587;46021;-76
2024/03/14 06:59:33;;;;;;;;;13.00;11.00;;;;;16.85;50.06;100925.13;146597;655;47010;-74
2024/03/14 07:02:40;;;;;;;;;15.75;13.00;;;;;16.74;51.06;100925.63;146599;589;47008;-75
2024/03/14 07:05:57;;;;;;;;;14.50;12.50;;;;;16.75;51.05;100923.06;146595;586;46016;-74
2024/03/14 07:08:57;;;;;;;;;12.75;9.50;;;;;16.85;51.45;100919.91;146594;604;48020;-75
2024/03/14 07:11:54;;;;;;;;;15.25;13.25;;;;;16.97;50.75;100914.09;146595;574;47010;-74
2024/03/14 07:14:49;;;;;;;;;14.75;13.00;;;;;17.29;50.49;100915.00;146600;611;46020;-73
2024/03/14 07:17:45;;;;;;;;;15.75;12.75;;;;;17.61;49.25;100927.19;146596;628;46017;-79
2024/03/14 07:20:49;;;;;;;;;16.25;12.75;;;;;17.97;48.82;100924.59;146599;571;46941;-83
2024/03/14 07:23:43;;;;;;;;;13.50;11.50;;;;;17.45;47.81;100777.34;146594;619;47016;-82
2024/03/14 07:26:58;;;;;;;;;15.00;12.00;;;;;18.63;47.98;100929.66;146614;580;46008;-79
2024/03/14 07:29:53;;;;;;;;;10.75;10.75;;;;;18.87;45.28;100934.56;146624;573;46008;-84
2024/03/14 07:33:01;;;;;;;;;11.00;9.75;;;;;18.95;46.81;100931.22;146626;711;45020;-81
2024/03/14 07:35:59;;;;;;;;;14.50;10.75;;;;;18.95;45.73;100928.59;146616;566;46912;-86
2024/03/14 07:38:56;;;;;;;;;12.75;9.75;;;;;18.85;46.12;100932.78;146622;689;46020;-81
2024/03/14 07:41:52;;;;;;;;;7.75;7.00;;;;;18.77;45.91;100936.97;146619;628;47010;-83
2024/03/14 07:44:54;;;;;;;;;8.25;8.25;;;;;18.60;46.98;100944.47;146628;671;45020;-83
2024/03/14 07:47:59;;;;;;;;;9.25;9.25;;;;;17.76;47.10;100804.31;146618;610;46026;-80
2024/03/14 07:50:58;;;;;;;;;8.00;7.00;;;;;18.69;46.61;100939.38;146627;662;45008;-86
2024/03/14 07:54:13;;;;;;;;;7.67;5.67;;;;;18.88;46.09;100935.47;146625;575;46013;-72
2024/03/14 07:57:14;;;;;;;;;7.67;6.00;;;;;19.01;46.09;100947.12;146628;644;46008;-73
2024/03/14 08:00:21;;;;;;;;;6.75;6.75;;;;;19.15;45.24;100945.63;146622;674;46012;-74
2024/03/14 08:03:17;;;;;;;;;9.67;8.00;;;;;19.27;45.71;100945.00;146622;588;48008;-74
2024/03/14 08:06:25;;;;;;;;;5.00;4.00;;;;;19.34;44.57;100939.84;146627;629;45010;-81
2024/03/14 08:09:28;;;;;;;;;7.25;6.00;;;;;19.47;45.43;100941.00;146626;573;45917;-71
2024/03/14 08:12:34;;;;;;;;;9.00;7.67;;;;;19.51;45.03;100944.56;146624;584;45905;-84
2024/03/14 08:15:41;;;;;;;;;6.67;5.33;;;;;19.56;43.42;100937.63;146627;605;45008;-83
2024/03/14 08:18:51;;;;;;;;;7.00;5.00;;;;;19.57;45.84;100944.69;146626;626;46917;-82
2024/03/14 08:21:47;;;;;;;;;8.00;5.33;;;;;19.64;43.07;100946.59;146629;583;46008;-84
2024/03/14 08:24:52;;;;;;;;;4.00;4.00;;;;;19.52;42.50;100946.34;146617;600;46012;-90
2024/03/14 08:28:06;;;;;;;;;3.33;3.00;;;;;19.27;43.63;100945.00;146601;576;46020;-84
2024/03/14 08:31:36;;;;;;;;;5.00;4.00;;;;;18.90;45.28;100910.09;146595;698;47013;-89
2024/03/14 08:34:33;;;;;;;;;5.67;4.00;;;;;19.19;44.47;100951.81;146606;672;45021;-86
2024/03/14 08:37:37;;;;;;;;;6.33;5.33;;;;;19.34;45.22;100946.88;146597;575;47010;-87
2024/03/14 08:40:48;;;;;;;;;9.00;6.00;;;;;19.46;44.84;100952.34;146601;595;45021;-88
2024/03/14 08:43:43;;;;;;;;;6.67;3.33;;;;;19.53;44.03;100950.72;146597;692;47010;-88
2024/03/14 08:46:58;;;;;;;;;3.33;3.33;;;;;19.56;43.65;100954.31;146602;566;46024;-87
2024/03/14 08:49:55;;;;;;;;;8.00;8.00;;;;;19.49;44.30;100949.78;146596;598;47016;-90
2024/03/14 08:52:51;;;;;;;;;7.00;4.33;;;;;19.35;43.55;100952.16;146600;639;46038;-86
2024/03/14 08:56:05;;;;;;;;;5.67;5.67;;;;;16.92;45.61;100543.78;146595;581;48010;-87
2024/03/14 08:59:12;;;;;;;;;7.33;5.00;;;;;19.30;44.86;100951.19;146601;645;47020;-90
2024/03/14 09:02:09;;;;;;;;;5.67;4.00;;;;;18.72;45.12;100826.50;146599;581;46008;-88
2024/03/14 09:05:07;;;;;;;;;3.67;3.67;;;;;19.44;43.55;100938.31;146601;586;46020;-82
2024/03/14 09:08:10;;;;;;;;;4.00;3.00;;;;;19.43;43.31;100938.28;146598;595;47010;-88
2024/03/14 09:11:22;;;;;;;;;2.00;2.00;;;;;19.50;45.10;100932.25;146598;614;47008;-84
2024/03/14 09:14:30;;;;;;;;;4.33;4.00;;;;;19.55;44.24;100934.12;146595;629;47012;-90
2024/03/14 09:17:24;;;;;;;;;3.00;3.00;;;;;19.68;44.18;100927.34;146601;598;46021;-85
2024/03/14 09:20:20;;;;;;;;;2.00;2.00;;;;;19.90;41.54;100917.19;146597;592;47911;-85
2024/03/14 09:23:21;;;;;;;;;3.00;3.00;;;;;19.97;42.19;100919.97;146600;577;47021;-73
2024/03/14 09:26:25;;;;;;;;;3.67;2.33;;;;;20.06;42.40;100924.47;146598;592;46016;-80
2024/03/14 09:29:22;;;;;;;;;6.00;4.00;;;;;20.22;43.36;100923.88;146600;576;47020;-86
2024/03/14 09:32:18;;;;;;;;;4.00;4.00;;;;;20.47;43.34;100917.19;146593;615;47012;-81
2024/03/14 09:35:40;;;;;;;;;2.67;2.67;;;;;20.65;43.39;100903.41;146599;590;47020;-80
2024/03/14 09:38:51;;;;;;;;;3.00;3.00;;;;;20.57;44.42;100905.06;146598;679;46016;-81
2024/03/14 09:42:05;;;;;;;;;2.67;2.67;;;;;20.27;42.72;100916.03;146601;595;46020;-80
2024/03/14 09:45:04;;;;;;;;;2.67;2.67;;;;;20.04;43.48;100910.41;146599;613;46016;-79
2024/03/14 09:47:58;;;;;;;;;6.33;5.00;;;;;19.88;43.68;100905.78;146599;569;47021;-76
2024/03/14 09:51:05;;;;;;;;;;;;;;;;;;;;;
2024/03/14 09:54:08;;;;;;;;;3.00;3.00;;;;;19.88;43.32;100892.62;146599;579;47010;-81
2024/03/14 09:57:16;;;;;;;;;3.33;3.00;;;;;20.00;43.36;100893.69;146597;613;47010;-84
2024/03/14 10:00:24;;;;;;;;;4.67;3.00;;;;;20.06;43.33;100890.25;146602;648;46020;-81
2024/03/14 10:03:46;;;;;;;;;4.00;3.67;;;;;20.17;43.00;100885.16;146599;564;46010;-78
2024/03/14 10:06:58;;;;;;;;;4.33;4.33;;;;;20.27;42.17;100887.94;146602;596;46008;-79
2024/03/14 10:09:59;;;;;;;;;5.00;5.00;;;;;20.35;39.62;100874.00;146601;638;46016;-76
2024/03/14 10:13:04;;;;;;;;;5.67;5.33;;;;;20.40;41.94;100867.91;146598;589;46020;-80
2024/03/14 10:16:00;;;;;;;;;6.00;4.00;;;;;20.44;41.41;100859.22;146597;619;46017;-84
2024/03/14 10:19:17;;;;;;;;;6.33;4.00;;;;;20.57;43.13;100865.56;146597;605;48020;-81
2024/03/14 10:22:13;;;;;;;;;3.00;2.67;;;;;20.76;42.94;100857.00;146597;574;46912;-82
2024/03/14 10:25:15;;;;;;;;;4.00;2.33;;;;;20.93;41.83;100857.22;146601;593;46021;-82
2024/03/14 10:28:31;;;;;;;;;6.00;5.00;;;;;20.99;42.65;100853.72;146599;570;46029;-82
2024/03/14 10:31:26;;;;;;;;;3.00;2.33;;;;;20.96;40.85;100848.44;146603;604;46021;-77
2024/03/14 10:34:24;;;;;;;;;5.00;3.67;;;;;20.13;39.56;100713.12;146598;645;46016;-81
2024/03/14 10:37:26;;;;;;;;;5.00;3.67;;;;;20.94;42.35;100844.91;146598;599;47011;-82
2024/03/14 10:40:39;;;;;;;;;;;;;;;;;;;;;
2024/03/14 10:44:06;;;;;;;;;2.33;2.33;;;;;19.33;42.20;100533.22;146601;579;46008;-84
2024/03/14 10:47:10;;;;;;;;;5.00;3.00;;;;;21.18;44.14;100837.25;146601;580;46017;-75
2024/03/14 10:50:30;;;;;;;;;4.33;3.67;;;;;21.27;43.06;100827.63;146601;654;46020;-85
2024/03/14 10:53:41;;;;;;;;;7.67;4.67;;;;;21.36;42.89;100823.37;146600;574;47010;-81
2024/03/14 10:56:38;;;;;;;;;4.33;4.00;;;;;21.44;41.37;100823.44;146604;573;46020;-84
2024/03/14 10:59:39;;;;;;;;;5.33;3.00;;;;;21.47;40.93;100819.97;146598;590;46017;-83
2024/03/14 11:02:43;;;;;;;;;3.00;3.00;;;;;21.52;43.42;100820.84;146602;588;46020;-85
2024/03/14 11:05:59;;;;;;;;;5.00;3.00;;;;;21.58;43.44;100821.78;146595;580;47016;-84
2024/03/14 11:09:08;;;;;;;;;4.00;4.00;;;;;21.55;43.24;100819.13;146602;681;46021;-76
2024/03/14 11:12:11;;;;;;;;;3.67;3.67;;;;;21.36;43.03;100811.94;146596;657;47010;-82
2024/03/14 11:15:22;;;;;;;;;4.00;3.00;;;;;21.16;43.51;100809.09;146600;639;46021;-82
2024/03/14 11:18:39;;;;;;;;;3.00;3.00;;;;;20.95;41.63;100815.03;146598;588;47010;-82
2024/03/14 11:22:03;;;;;;;;;3.00;3.00;;;;;20.61;42.31;100803.25;146600;643;48018;-80
2024/03/14 11:25:13;;;;;;;;;2.33;2.33;;;;;20.12;44.26;100807.84;146598;671;46909;-81
2024/03/14 11:28:26;;;;;;;;;5.00;5.00;;;;;19.75;45.35;100800.34;146601;597;47020;-82
2024/03/14 11:31:21;;;;;;;;;5.00;4.00;;;;;19.41;44.20;100801.53;146598;566;46030;-79
2024/03/14 11:34:40;;;;;;;;;11.00;11.00;;;;;19.13;46.24;100798.41;146602;569;46008;-83
2024/03/14 11:37:58;;;;;;;;;6.33;6.33;;;;;18.88;44.92;100807.59;146599;600;46017;-79
2024/03/14 11:41:13;;;;;;;;;7.00;6.00;;;;;18.62;45.14;100801.78;146600;574;47008;-80
2024/03/14 11:44:29;;;;;;;;;5.00;3.33;;;;;18.39;45.99;100793.47;146599;579;46912;-81
2024/03/14 11:48:19;;;;;;;;;3.33;3.00;;;;;17.53;45.61;100641.19;146601;593;46020;-80
2024/03/14 11:51:28;;;;;;;;;7.00;6.00;;;;;18.70;45.96;100804.59;146602;566;47010;-81
2024/03/14 11:54:21;;;;;;;;;5.75;5.75;;;;;18.87;44.66;100802.31;146597;603;48008;-80
2024/03/14 11:57:20;;;;;;;;;4.00;4.00;;;;;19.05;43.54;100789.50;146597;593;47010;-80
2024/03/14 12:00:26;;;;;;;;;8.00;7.50;;;;;19.21;44.36;100787.16;146602;618;46008;-80
2024/03/14 12:03:36;;;;;;;;;4.00;4.00;;;;;19.47;45.50;100792.81;146596;614;47010;-79
2024/03/14 12:06:34;;;;;;;;;11.00;9.00;;;;;19.73;42.79;100782.75;146600;653;47021;-82
2024/03/14 12:09:33;;;;;;;;;6.33;4.67;;;;;19.80;42.40;100777.59;146599;574;46017;-81
2024/03/14 12:12:32;;;;;;;;;4.33;4.00;;;;;19.95;42.89;100771.66;146603;576;46020;-81
2024/03/14 12:15:36;;;;;;;;;3.67;3.67;;;;;20.19;41.19;100773.75;146597;610;46016;-81
2024/03/14 12:18:52;;;;;;;;;4.00;4.00;;;;;18.69;43.56;100471.88;146601;609;46020;-81
2024/03/14 12:21:51;;;;;;;;;5.00;4.00;;;;;19.93;40.35;100638.28;146598;577;47010;-80
2024/03/14 12:24:45;;;;;;;;;2.67;2.67;;;;;20.84;38.61;100763.97;146599;629;46030;-80
2024/03/14 12:27:50;;;;;;;;;6.00;4.67;;;;;20.90;38.78;100758.75;146599;633;47016;-80
2024/03/14 12:31:06;;;;;;;;;3.67;3.00;;;;;20.88;40.29;100750.84;146602;605;46021;-83
2024/03/14 12:34:03;;;;;;;;;4.67;3.00;;;;;20.95;40.49;100752.66;146597;589;47010;-77
2024/03/14 12:37:24;;;;;;;;;3.00;2.67;;;;;21.02;42.93;100750.06;146601;593;47008;-82
2024/03/14 12:40:23;;;;;;;;;5.67;4.00;;;;;21.05;40.63;100752.75;146597;587;47016;-83
2024/03/14 12:43:26;;;;;;;;;4.00;4.00;;;;;20.98;41.66;100757.06;146605;578;46008;-85
2024/03/14 12:46:22;;;;;;;;;4.00;4.00;;;;;21.02;40.63;100743.03;146597;674;46912;-81
2024/03/14 12:49:22;;;;;;;;;3.00;2.00;;;;;21.07;40.76;100740.47;146598;630;47020;-82
2024/03/14 12:52:18;;;;;;;;;6.00;4.33;;;;;21.10;40.13;100751.91;146597;599;47010;-81
2024/03/14 12:55:33;;;;;;;;;4.67;4.00;;;;;21.06;41.12;100747.50;146604;681;46008;-81
2024/03/14 12:58:28;;;;;;;;;6.75;6.00;;;;;20.94;40.60;100747.38;146597;621;47013;-79
2024/03/14 13:01:47;;;;;;;;;4.33;4.00;;;;;20.73;40.84;100742.78;146604;598;46008;-79
2024/03/14 13:05:01;;;;;;;;;7.67;7.00;;;;;20.53;41.41;100742.59;146596;661;47031;-82
2024/03/14 13:08:22;;;;;;;;;4.33;4.00;;;;;20.49;43.67;100753.91;146601;639;46008;-84
2024/03/14 13:11:18;;;;;;;;;4.33;4.00;;;;;20.43;41.45;100748.56;146599;600;46016;-83
2024/03/14 13:14:25;;;;;;;;;5.00;3.00;;;;;20.37;41.91;100749.37;146603;634;46021;-84
2024/03/14 13:17:21;;;;;;;;;4.33;4.33;;;;;20.28;40.95;100733.50;146595;605;46010;-80
2024/03/14 13:20:25;;;;;;;;;7.33;4.67;;;;;20.32;41.36;100743.19;146599;599;47008;-81
2024/03/14 13:23:28;;;;;;;;;6.00;5.00;;;;;20.22;40.86;100742.19;146600;590;47016;-79
2024/03/14 13:26:26;;;;;;;;;4.00;4.00;;;;;19.93;40.55;100736.53;146600;594;47008;-80
2024/03/14 13:29:39;;;;;;;;;6.33;5.00;;;;;19.66;42.07;100751.94;146599;608;46017;-81
2024/03/14 13:32:56;;;;;;;;;4.00;3.00;;;;;19.33;41.51;100745.28;146599;570;46008;-80
2024/03/14 13:36:00;;;;;;;;;4.67;4.33;;;;;19.17;41.99;100744.16;146595;637;47017;-80
2024/03/14 13:38:56;;;;;;;;;6.33;5.67;;;;;19.12;42.34;100745.81;146600;572;47008;-80
2024/03/14 13:41:58;;;;;;;;;4.33;4.33;;;;;19.06;41.73;100737.81;146594;597;47016;-81
2024/03/14 13:44:52;;;;;;;;;6.00;3.33;;;;;19.07;42.58;100742.25;146602;610;46021;-82
2024/03/14 13:47:48;;;;;;;;;5.33;4.33;;;;;19.16;42.72;100742.41;146599;611;46016;-80
2024/03/14 13:50:51;;;;;;;;;7.00;4.67;;;;;19.26;41.88;100746.94;146599;624;47008;-80
2024/03/14 13:53:50;;;;;;;;;4.67;4.00;;;;;19.34;42.42;100739.16;146597;570;47010;-81
2024/03/14 13:57:08;;;;;;;;;4.33;3.00;;;;;19.11;42.56;100684.47;146601;635;46020;-80
2024/03/14 14:00:11;;;;;;;;;6.00;5.00;;;;;19.42;41.19;100741.94;146599;646;46017;-80
2024/03/14 14:03:24;;;;;;;;;16.00;15.75;;;;;19.37;40.87;100747.97;146600;577;47020;-80
2024/03/14 14:06:20;;;;;;;;;6.25;5.25;;;;;19.28;41.09;100729.44;146597;649;47012;-81
2024/03/14 14:09:24;;;;;;;;;6.00;5.00;;;;;19.29;42.86;100739.09;146600;592;47008;-83
2024/03/14 14:12:41;;;;;;;;;4.33;3.33;;;;;19.27;41.42;100743.44;146593;567;47010;-81
2024/03/14 14:16:05;;;;;;;;;;;;;;;;;;;;;
2024/03/14 14:19:01;;;;;;;;;4.00;3.50;;;;;19.28;42.63;100746.94;146596;700;46018;-82